Time;durP1;ratioP1;P1;durP2;ratioP2;P2;SDS_P1;SDS_P2;PMS_P1;PMS_P2;Temp;Humidity;BMP_temperature;BMP_pressure;BME280_temperature;BME280_humidity;BME280_pressure;Samples;Min_cycle;Max_cycle;Signal;HPM_P1;HPM_P2
2021/07/12 00:01:56;;;;;;;6.65;1.25;;;;;;;14.50;88.64;99050.34;2017547;80;20623;-80
2021/07/12 00:04:59;;;;;;;3.63;1.35;;;;;;;14.52;88.66;99060.75;2012031;80;20951;-80
2021/07/12 00:08:02;;;;;;;3.00;1.44;;;;;;;14.50;88.68;99055.59;2008970;80;20169;-80
2021/07/12 00:11:04;;;;;;;4.36;1.50;;;;;;;14.49;88.84;99058.22;2010317;80;20250;-79
2021/07/12 00:14:07;;;;;;;4.69;1.44;;;;;;;14.51;88.82;99056.44;2010836;80;20185;-80
2021/07/12 00:17:10;;;;;;;3.22;1.60;;;;;;;14.51;88.67;99048.59;2010071;77;20281;-80
2021/07/12 00:20:14;;;;;;;4.10;1.25;;;;;;;14.50;88.52;99047.75;2009899;80;20270;-79
2021/07/12 00:23:17;;;;;;;3.83;1.23;;;;;;;14.46;88.49;99037.41;2009771;80;20193;-80
2021/07/12 00:26:19;;;;;;;2.58;1.17;;;;;;;14.44;88.50;99029.63;2012265;80;20251;-80
2021/07/12 00:29:22;;;;;;;4.86;1.20;;;;;;;14.43;88.34;99035.75;2016058;80;20185;-80
2021/07/12 00:32:25;;;;;;;3.91;1.10;;;;;;;14.41;88.41;99040.13;2008660;79;24824;-81
2021/07/12 00:35:27;;;;;;;4.45;1.38;;;;;;;14.36;88.99;99031.56;2003071;81;20287;-81
2021/07/12 00:38:30;;;;;;;4.44;1.30;;;;;;;14.33;89.34;99023.78;2001167;81;20170;-80
2021/07/12 00:41:35;;;;;;;3.36;1.44;;;;;;;14.33;89.77;99028.13;2002924;81;20162;-81
2021/07/12 00:44:38;;;;;;;3.25;1.23;;;;;;;14.35;89.78;99023.72;2004950;81;20264;-80
2021/07/12 00:47:41;;;;;;;6.85;1.14;;;;;;;14.38;89.73;99031.50;2008371;78;21604;-79
2021/07/12 00:50:45;;;;;;;2.31;1.20;;;;;;;14.39;89.84;99028.00;2002829;81;21015;-79
2021/07/12 00:53:48;;;;;;;4.93;1.31;;;;;;;14.41;89.67;99027.06;2003818;81;20186;-79
2021/07/12 00:56:51;;;;;;;2.35;1.15;;;;;;;14.40;89.71;99017.50;2003709;81;20162;-79
2021/07/12 00:59:54;;;;;;;1.66;1.30;;;;;;;14.41;89.29;99011.38;2003627;81;20254;-80
2021/07/12 01:02:57;;;;;;;4.44;1.40;;;;;;;14.42;89.35;99012.25;2003843;78;22490;-79
2021/07/12 01:06:00;;;;;;;2.30;1.26;;;;;;;14.40;89.28;99004.44;2002418;81;20571;-79
2021/07/12 01:09:03;;;;;;;6.45;1.40;;;;;;;14.40;89.19;99007.06;2004311;81;20182;-80
2021/07/12 01:12:22;;;;;;;4.36;1.10;;;;;;;14.38;89.15;99016.69;2005413;81;20263;-79
2021/07/12 01:15:30;;;;;;;4.33;1.31;;;;;;;14.36;89.20;99021.09;2009668;81;20267;-79
2021/07/12 01:18:48;;;;;;;1.57;1.23;;;;;;;14.35;89.41;99024.59;2001073;78;20953;-79
2021/07/12 01:22:12;;;;;;;3.61;1.30;;;;;;;14.30;89.58;99021.25;2003988;81;20174;-80
2021/07/12 01:25:54;;;;;;;4.51;1.17;;;;;;;14.29;89.58;99009.09;2005404;81;20251;-80
2021/07/12 01:29:14;;;;;;;2.67;1.19;;;;;;;14.29;89.46;99008.22;2005370;80;20668;-80
2021/07/12 01:32:47;;;;;;;3.63;1.09;;;;;;;14.28;89.16;99009.13;2003354;78;20515;-80
2021/07/12 01:35:56;;;;;;;4.06;1.15;;;;;;;14.23;88.94;99011.88;2004756;81;20191;-80
2021/07/12 01:39:06;;;;;;;4.38;1.10;;;;;;;14.19;88.71;99012.84;2006040;81;20174;-79
2021/07/12 01:42:24;;;;;;;1.67;1.20;;;;;;;14.13;88.78;99016.44;2004833;80;20726;-79
2021/07/12 01:45:32;;;;;;;3.50;0.89;;;;;;;14.07;88.78;99011.38;2003353;81;20185;-81
2021/07/12 01:48:53;;;;;;;1.42;0.96;;;;;;;14.03;88.90;99011.50;2004484;80;20205;-80
2021/07/12 01:52:05;;;;;;;3.41;1.27;;;;;;;14.01;89.05;99010.69;2003661;80;20230;-77
2021/07/12 01:55:35;;;;;;;4.99;1.04;;;;;;;13.99;88.90;98994.19;2002858;81;20178;-78
2021/07/12 01:58:52;;;;;;;2.35;0.81;;;;;;;13.94;88.75;98980.38;2001902;81;20275;-77
2021/07/12 02:01:56;;;;;;;9.10;1.00;;;;;;;13.93;88.72;98976.91;2002364;81;20174;-78
2021/07/12 02:05:03;;;;;;;2.22;1.54;;;;;;;13.92;88.94;98975.22;2004089;81;20286;-78
2021/07/12 02:08:08;;;;;;;5.47;2.04;;;;;;;13.88;88.89;98966.59;2003672;81;20724;-78
2021/07/12 02:11:15;;;;;;;2.75;1.88;;;;;;;13.83;89.42;98973.69;2003157;81;20287;-78
2021/07/12 02:14:21;;;;;;;6.39;2.54;;;;;;;13.81;89.91;98970.22;2004201;81;20688;-78
2021/07/12 02:17:25;;;;;;;3.30;1.85;;;;;;;13.84;90.19;98977.16;2002422;78;24774;-78
2021/07/12 02:20:31;;;;;;;7.13;2.05;;;;;;;13.85;90.20;98981.47;2004287;81;20236;-79
2021/07/12 02:23:35;;;;;;;6.10;2.63;;;;;;;13.79;90.53;98984.22;2003097;81;20685;-79
2021/07/12 02:26:38;;;;;;;6.40;1.90;;;;;;;13.81;90.97;98983.28;2003991;81;20178;-78
2021/07/12 02:29:41;;;;;;;5.61;1.85;;;;;;;13.87;90.84;98975.31;2003578;81;20588;-79
2021/07/12 02:32:45;;;;;;;4.31;1.70;;;;;;;13.91;90.44;98968.28;2003566;78;21013;-79
2021/07/12 02:35:49;;;;;;;2.60;1.98;;;;;;;13.93;90.23;98965.63;2003696;81;20203;-79
2021/07/12 02:38:55;;;;;;;4.82;1.88;;;;;;;13.92;90.08;98967.38;2003879;81;20185;-78
2021/07/12 02:41:58;;;;;;;7.22;1.63;;;;;;;13.91;89.93;98957.84;2004354;80;20182;-78
2021/07/12 02:45:03;;;;;;;5.35;1.73;;;;;;;13.88;89.80;98961.38;2003003;81;20930;-78
2021/07/12 02:48:07;;;;;;;4.43;1.56;;;;;;;13.84;89.82;98958.91;2004219;81;22457;-79
2021/07/12 02:51:14;;;;;;;6.04;1.94;;;;;;;13.80;89.71;98952.88;2003555;81;20615;-78
2021/07/12 02:54:24;;;;;;;3.20;1.42;;;;;;;13.76;89.89;98956.44;2003913;81;20217;-79
2021/07/12 02:57:27;;;;;;;2.04;1.23;;;;;;;13.70;89.94;98954.00;2003530;81;20210;-78
2021/07/12 03:00:29;;;;;;;3.59;1.40;;;;;;;13.66;90.05;98951.50;2001707;80;27223;-79
2021/07/12 03:03:32;;;;;;;3.17;1.40;;;;;;;13.62;90.01;98953.31;1998376;81;20224;-78
2021/07/12 03:06:35;;;;;;;3.61;1.80;;;;;;;13.63;89.90;98944.59;1997264;81;20614;-78
2021/07/12 03:09:41;;;;;;;2.89;1.70;;;;;;;13.65;89.86;98944.59;2000889;81;20324;-78
2021/07/12 03:12:53;;;;;;;3.69;1.92;;;;;;;13.65;89.80;98927.19;1996765;81;20210;-78
2021/07/12 03:15:57;;;;;;;3.92;2.10;;;;;;;13.68;89.97;98927.09;1998272;78;25325;-79
2021/07/12 03:19:02;;;;;;;5.61;2.26;;;;;;;13.72;89.81;98920.91;2002807;81;20624;-78
2021/07/12 03:22:09;;;;;;;5.41;2.40;;;;;;;13.76;90.03;98919.06;2001991;81;20170;-78
2021/07/12 03:25:17;;;;;;;3.50;2.40;;;;;;;13.80;89.92;98920.69;2002559;81;20680;-78
2021/07/12 03:28:21;;;;;;;4.79;2.21;;;;;;;13.85;89.92;98911.88;2002207;81;20178;-78
2021/07/12 03:31:27;;;;;;;2.66;2.21;;;;;;;13.98;90.86;98914.16;1999310;81;22931;-78
2021/07/12 03:34:31;;;;;;;3.85;1.90;;;;;;;14.03;90.49;98917.53;2003051;80;20859;-78
2021/07/12 03:37:35;;;;;;;4.29;2.41;;;;;;;14.06;90.22;98920.91;2002134;80;20686;-78
2021/07/12 03:40:40;;;;;;;3.63;2.31;;;;;;;14.10;89.73;98911.22;2005872;80;20236;-79
2021/07/12 03:43:43;;;;;;;3.49;2.61;;;;;;;14.12;89.28;98897.22;2002775;81;20225;-79
2021/07/12 03:46:46;;;;;;;6.78;3.11;;;;;;;14.15;88.94;98891.06;2001582;78;22861;-78
2021/07/12 03:49:49;;;;;;;6.20;3.63;;;;;;;14.17;89.19;98887.50;2002192;81;20196;-78
2021/07/12 03:52:52;;;;;;;5.40;3.84;;;;;;;14.20;89.45;98879.63;2002447;81;20174;-79
2021/07/12 03:55:55;;;;;;;6.16;3.80;;;;;;;14.25;89.33;98870.81;2002240;81;20178;-78
2021/07/12 03:58:57;;;;;;;4.61;3.44;;;;;;;14.29;89.27;98868.06;2003293;81;20213;-79
2021/07/12 04:02:00;;;;;;;4.34;3.09;;;;;;;14.35;89.23;98873.09;2001490;80;21725;-78
2021/07/12 04:05:06;;;;;;;5.15;2.85;;;;;;;14.39;88.96;98871.28;2002161;81;20620;-79
2021/07/12 04:08:08;;;;;;;5.75;2.58;;;;;;;14.45;89.00;98855.47;2002511;81;20205;-79
2021/07/12 04:11:12;;;;;;;6.53;2.88;;;;;;;14.50;88.73;98859.63;2002733;81;20266;-78
2021/07/12 04:14:16;;;;;;;3.64;2.38;;;;;;;14.54;89.15;98849.94;2002014;81;20173;-79
2021/07/12 04:17:20;;;;;;;2.54;2.01;;;;;;;14.59;88.96;98834.16;2001933;78;23602;-79
2021/07/12 04:20:26;;;;;;;7.22;3.09;;;;;;;14.64;88.63;98837.50;2002770;81;20190;-79
2021/07/12 04:23:29;;;;;;;5.41;3.51;;;;;;;14.65;88.65;98833.97;2003128;81;20225;-79
2021/07/12 04:26:32;;;;;;;3.63;2.45;;;;;;;14.61;89.91;98838.44;2003149;81;20523;-79
2021/07/12 04:29:35;;;;;;;7.44;3.00;;;;;;;14.65;90.31;98837.44;2002755;80;20655;-78
2021/07/12 04:32:38;;;;;;;2.90;2.03;;;;;;;14.70;90.03;98838.16;2002222;78;22572;-79
2021/07/12 04:35:40;;;;;;;5.36;2.03;;;;;;;14.76;89.92;98838.00;2002714;80;20189;-79
2021/07/12 04:38:43;;;;;;;2.11;1.90;;;;;;;14.83;89.54;98836.03;2002362;81;21231;-78
2021/07/12 04:41:45;;;;;;;2.66;1.50;;;;;;;14.89;89.10;98832.38;2002132;81;20369;-79
2021/07/12 04:44:48;;;;;;;3.71;2.19;;;;;;;14.92;89.02;98838.38;2002437;81;20223;-79
2021/07/12 04:47:51;;;;;;;6.84;2.45;;;;;;;14.96;88.83;98836.53;2000744;78;21672;-79
2021/07/12 04:50:54;;;;;;;8.41;2.60;;;;;;;14.98;88.92;98846.03;2002345;81;20749;-79
2021/07/12 04:53:56;;;;;;;3.22;2.13;;;;;;;14.97;89.14;98854.78;2002293;81;20593;-79
2021/07/12 04:56:59;;;;;;;6.64;1.69;;;;;;;15.03;89.03;98865.03;2001652;80;20186;-79
2021/07/12 05:00:07;;;;;;;3.95;2.00;;;;;;;15.03;89.17;98866.78;2001067;81;20173;-79
2021/07/12 05:03:10;;;;;;;3.94;1.75;;;;;;;15.14;88.78;98858.63;2001230;78;25440;-79
2021/07/12 05:06:12;;;;;;;2.89;1.36;;;;;;;15.27;88.41;98849.50;2002294;81;20166;-79
2021/07/12 05:09:16;;;;;;;5.38;1.89;;;;;;;15.37;88.19;98862.22;2002702;81;20214;-82
2021/07/12 05:12:19;;;;;;;2.00;1.60;;;;;;;15.47;88.20;98882.84;2009663;81;20225;-81
2021/07/12 05:15:22;;;;;;;1.80;1.42;;;;;;;15.57;87.89;98889.47;2006890;78;23220;-81
2021/07/12 05:18:24;;;;;;;6.53;1.96;;;;;;;15.68;87.50;98892.66;2005866;81;20244;-80
2021/07/12 05:21:28;;;;;;;3.94;2.00;;;;;;;15.77;87.25;98883.63;2003903;81;20219;-81
2021/07/12 05:24:31;;;;;;;2.51;1.83;;;;;;;15.86;87.07;98865.00;2002309;81;20197;-81
2021/07/12 05:27:34;;;;;;;7.63;2.51;;;;;;;15.98;86.55;98859.34;2004336;81;20277;-80
2021/07/12 05:30:36;;;;;;;3.94;2.84;;;;;;;16.08;85.93;98857.25;2001906;78;20963;-81
2021/07/12 05:33:39;;;;;;;6.68;3.11;;;;;;;16.19;85.58;98855.97;2003663;80;20305;-82
2021/07/12 05:36:42;;;;;;;8.65;3.15;;;;;;;16.32;85.19;98857.22;2005078;81;20197;-80
2021/07/12 05:39:45;;;;;;;6.40;2.76;;;;;;;16.46;84.87;98850.63;2005643;81;20198;-81
2021/07/12 05:42:47;;;;;;;4.65;2.89;;;;;;;16.61;84.23;98842.19;2005353;81;20207;-81
2021/07/12 05:45:50;;;;;;;7.79;2.60;;;;;;;16.79;83.70;98849.41;2007301;78;20630;-81
2021/07/12 05:48:52;;;;;;;9.75;2.80;;;;;;;16.98;82.92;98840.81;2008089;81;20217;-80
2021/07/12 05:51:55;;;;;;;5.25;2.03;;;;;;;17.09;82.50;98831.63;2009593;81;20255;-81
2021/07/12 05:54:58;;;;;;;5.20;2.19;;;;;;;17.26;81.73;98833.56;2008199;81;20736;-82
2021/07/12 05:58:01;;;;;;;5.21;1.42;;;;;;;17.36;81.00;98820.91;2007943;81;20272;-81
2021/07/12 06:01:04;;;;;;;3.75;1.20;;;;;;;17.46;79.58;98812.59;2007512;78;20589;-82
2021/07/12 06:04:06;;;;;;;1.76;1.30;;;;;;;17.43;78.99;98812.75;2009635;81;20198;-81
2021/07/12 06:07:09;;;;;;;2.49;1.19;;;;;;;17.35;78.64;98800.84;2008249;81;20205;-81
2021/07/12 06:10:12;;;;;;;3.25;1.50;;;;;;;17.30;78.42;98803.66;2011577;81;20178;-83
2021/07/12 06:13:15;;;;;;;2.64;1.29;;;;;;;17.27;78.24;98816.91;2014104;81;20170;-83
2021/07/12 06:16:18;;;;;;;1.42;1.10;;;;;;;17.26;78.25;98819.59;2012114;78;27615;-80
2021/07/12 06:19:21;;;;;;;1.91;1.14;;;;;;;17.27;78.51;98831.81;2010861;81;20209;-82
2021/07/12 06:22:24;;;;;;;2.01;0.94;;;;;;;17.30;78.39;98829.03;2010830;81;20275;-83
2021/07/12 06:25:26;;;;;;;2.24;1.34;;;;;;;17.34;78.51;98823.59;2010992;81;20185;-82
2021/07/12 06:28:29;;;;;;;3.04;1.00;;;;;;;17.40;78.68;98812.84;2009436;81;20295;-80
2021/07/12 06:31:32;;;;;;;1.10;1.00;;;;;;;17.49;78.67;98809.00;2004325;78;21408;-80
2021/07/12 06:34:35;;;;;;;2.55;1.11;;;;;;;17.65;77.40;98817.09;2004158;80;20189;-80
2021/07/12 06:37:38;;;;;;;2.13;1.10;;;;;;;17.84;76.91;98801.44;2003676;81;20186;-79
2021/07/12 06:40:40;;;;;;;3.15;0.90;;;;;;;17.97;76.44;98795.56;2004533;81;20181;-80
2021/07/12 06:43:43;;;;;;;2.40;1.14;;;;;;;18.08;75.88;98795.94;2005835;81;20842;-80
2021/07/12 06:46:45;;;;;;;5.74;1.20;;;;;;;18.23;75.62;98785.66;2003478;78;31711;-80
2021/07/12 06:49:48;;;;;;;2.75;1.00;;;;;;;18.32;74.97;98777.38;2005822;81;20186;-81
2021/07/12 06:52:51;;;;;;;1.33;0.90;;;;;;;18.37;74.43;98768.34;2006351;81;20212;-81
2021/07/12 06:55:53;;;;;;;1.48;0.90;;;;;;;18.38;74.27;98762.16;2004504;81;20279;-81
2021/07/12 06:58:56;;;;;;;2.97;0.80;;;;;;;18.42;74.06;98753.22;2004696;81;20182;-80
2021/07/12 07:01:59;;;;;;;2.34;1.29;;;;;;;18.58;73.68;98739.34;2002814;78;20972;-80
2021/07/12 07:05:03;;;;;;;2.03;1.04;;;;;;;18.73;73.04;98732.56;2005567;80;20190;-81
2021/07/12 07:08:06;;;;;;;2.10;0.95;;;;;;;18.79;72.97;98735.72;2006304;81;20195;-80
2021/07/12 07:11:09;;;;;;;0.96;0.76;;;;;;;19.01;72.62;98722.38;2004443;81;20248;-80
2021/07/12 07:14:12;;;;;;;2.84;0.91;;;;;;;19.28;72.10;98721.00;2005234;80;20235;-81
2021/07/12 07:17:14;;;;;;;2.14;1.25;;;;;;;19.43;71.04;98724.66;2005734;78;21253;-81
2021/07/12 07:20:17;;;;;;;2.20;0.94;;;;;;;19.42;71.16;98720.31;2005764;81;20181;-81
2021/07/12 07:23:19;;;;;;;1.54;0.90;;;;;;;19.39;70.80;98719.59;2006750;81;20201;-81
2021/07/12 07:26:22;;;;;;;4.45;1.00;;;;;;;19.40;71.06;98714.28;2004146;81;20203;-80
2021/07/12 07:29:25;;;;;;;2.72;1.05;;;;;;;19.44;71.16;98701.81;2004490;81;20276;-80
2021/07/12 07:32:27;;;;;;;4.94;1.09;;;;;;;19.40;71.06;98703.75;2004642;78;24187;-81
2021/07/12 07:35:30;;;;;;;5.56;1.05;;;;;;;19.36;70.89;98691.66;2006603;80;20350;-82
2021/07/12 07:38:33;;;;;;;3.60;1.04;;;;;;;19.31;71.24;98691.03;2010346;81;20190;-82
2021/07/12 07:41:36;;;;;;;4.20;1.00;;;;;;;19.22;71.10;98663.41;2009314;81;20548;-82
2021/07/12 07:44:39;;;;;;;2.01;1.08;;;;;;;19.21;71.33;98651.19;2009287;81;20190;-81
2021/07/12 07:47:43;;;;;;;2.19;0.93;;;;;;;19.16;71.65;98655.81;2007762;78;24380;-82
2021/07/12 07:50:54;;;;;;;1.41;0.95;;;;;;;19.14;71.66;98646.31;2008552;81;20283;-82
2021/07/12 07:53:56;;;;;;;2.51;1.39;;;;;;;19.20;72.08;98622.28;2010754;81;20203;-82
2021/07/12 07:56:59;;;;;;;5.47;1.74;;;;;;;19.24;72.20;98613.31;2009762;81;20166;-83
2021/07/12 08:00:06;;;;;;;4.53;2.01;;;;;;;19.25;72.14;98601.88;2010005;81;20299;-82
2021/07/12 08:03:09;;;;;;;3.60;2.10;;;;;;;19.18;72.31;98614.47;2009160;78;23887;-83
2021/07/12 08:06:12;;;;;;;5.81;2.41;;;;;;;19.13;72.65;98621.75;2008748;81;20535;-82
2021/07/12 08:09:14;;;;;;;3.39;2.04;;;;;;;19.09;73.32;98628.13;2008405;81;20173;-82
2021/07/12 08:12:17;;;;;;;4.74;2.28;;;;;;;19.01;73.08;98623.22;2011769;81;20166;-86
2021/07/12 08:15:20;;;;;;;3.63;2.10;;;;;;;18.97;73.69;98613.81;2013039;81;20215;-83
2021/07/12 08:18:23;;;;;;;4.51;1.96;;;;;;;18.95;74.08;98602.50;2012231;81;20240;-79
2021/07/12 08:21:25;;;;;;;3.81;1.83;;;;;;;18.97;74.24;98599.78;2017172;81;20203;-85
2021/07/12 08:24:30;;;;;;;3.60;1.99;;;;;;;19.00;74.44;98600.47;2012398;81;20267;-83
2021/07/12 08:27:32;;;;;;;5.11;1.90;;;;;;;19.06;74.63;98603.75;2015652;81;20195;-83
2021/07/12 08:30:35;;;;;;;2.55;1.14;;;;;;;19.12;75.40;98637.63;2007489;78;21227;-83
2021/07/12 08:33:39;;;;;;;1.60;1.10;;;;;;;19.13;75.16;98678.81;2010177;80;20365;-82
2021/07/12 08:36:42;;;;;;;2.79;1.16;;;;;;;19.16;73.87;98700.56;2012564;81;20188;-83
2021/07/12 08:39:44;;;;;;;4.79;1.19;;;;;;;19.30;74.31;98710.41;2010577;81;20223;-83
2021/07/12 08:42:53;;;;;;;4.68;1.10;;;;;;;19.48;74.80;98722.63;2011124;81;20235;-81
2021/07/12 08:45:57;;;;;;;2.00;0.96;;;;;;;19.63;73.56;98718.38;2008274;78;23041;-82
2021/07/12 08:48:59;;;;;;;1.83;1.08;;;;;;;19.79;73.77;98726.34;2011636;81;20956;-82
2021/07/12 08:52:04;;;;;;;2.11;0.89;;;;;;;19.91;72.52;98729.16;2010415;81;20170;-82
2021/07/12 08:55:07;;;;;;;1.00;1.00;;;;;;;20.01;72.36;98726.91;2008985;81;20193;-81
2021/07/12 08:58:27;;;;;;;2.42;1.27;;;;;;;20.11;72.15;98720.22;2008775;81;20194;-81
2021/07/12 09:01:29;;;;;;;9.41;1.11;;;;;;;20.18;70.61;98703.13;2010145;81;20769;-82
2021/07/12 09:04:36;;;;;;;1.39;1.00;;;;;;;20.22;71.36;98696.75;2010411;81;20213;-81
2021/07/12 09:07:38;;;;;;;2.22;1.05;;;;;;;20.23;71.46;98689.69;2010677;81;20447;-81
2021/07/12 09:10:41;;;;;;;3.92;0.90;;;;;;;20.27;71.20;98683.31;2010730;81;20623;-82
2021/07/12 09:13:47;;;;;;;1.44;0.95;;;;;;;20.37;70.71;98668.69;2015590;81;20209;-83
2021/07/12 09:16:54;;;;;;;2.00;0.70;;;;;;;20.48;70.34;98676.88;2016691;81;20165;-84
2021/07/12 09:19:57;;;;;;;1.52;0.90;;;;;;;20.58;69.34;98690.41;2016549;81;20191;-84
2021/07/12 09:26:22;;;;;;;2.47;0.70;;;;;;;20.87;68.74;98699.31;2017388;70;20280;-80
2021/07/12 09:29:32;;;;;;;0.85;0.81;;;;;;;21.01;67.82;98703.78;2012708;81;20170;-83
2021/07/12 09:32:36;;;;;;;1.58;0.90;;;;;;;21.05;67.94;98711.44;2017498;78;24036;-83
2021/07/12 09:35:39;;;;;;;1.44;0.88;;;;;;;21.00;67.87;98712.63;2015143;81;20207;-81
2021/07/12 09:38:42;;;;;;;1.94;0.80;;;;;;;20.95;67.73;98704.13;2012796;81;20223;-83
2021/07/12 09:41:53;;;;;;;1.74;0.77;;;;;;;20.86;67.61;98702.03;2013315;81;20278;-84
2021/07/12 09:45:01;;;;;;;1.13;1.00;;;;;;;20.85;67.87;98701.19;2013794;81;20161;-83
2021/07/12 09:48:07;;;;;;;1.64;0.90;;;;;;;20.87;67.88;98715.13;2012784;78;21678;-80
2021/07/12 09:51:10;;;;;;;1.41;0.70;;;;;;;20.90;67.66;98714.09;2009036;81;20295;-81
2021/07/12 09:54:15;;;;;;;2.55;0.84;;;;;;;20.96;67.58;98721.66;2010549;81;20197;-80
2021/07/12 09:57:20;;;;;;;2.09;0.75;;;;;;;21.03;67.25;98729.16;2009970;81;20679;-80
2021/07/12 10:00:23;;;;;;;4.32;0.80;;;;;;;21.06;66.90;98730.75;2009325;81;20189;-80
2021/07/12 10:03:26;;;;;;;2.38;0.85;;;;;;;21.08;66.48;98737.66;2010176;81;20266;-80
2021/07/12 10:06:29;;;;;;;0.98;0.80;;;;;;;21.06;66.38;98746.59;2012734;81;20298;-80
2021/07/12 10:09:31;;;;;;;2.71;0.90;;;;;;;21.07;67.22;98758.88;2010451;81;20174;-80
2021/07/12 10:12:35;;;;;;;1.13;0.90;;;;;;;21.04;66.35;98759.06;2013755;80;20258;-80
2021/07/12 10:15:38;;;;;;;2.30;1.00;;;;;;;21.05;66.95;98766.88;2009667;78;27518;-80
2021/07/12 10:18:41;;;;;;;3.55;1.36;;;;;;;21.06;65.30;98768.56;2013448;81;20174;-78
2021/07/12 10:21:52;;;;;;;1.21;0.91;;;;;;;21.15;67.01;98759.25;2008122;81;20245;-80
2021/07/12 10:25:04;;;;;;;2.61;0.89;;;;;;;21.26;67.09;98754.25;2009295;81;20910;-81
2021/07/12 10:28:07;;;;;;;0.93;0.81;;;;;;;21.35;67.62;98759.00;2011898;81;20248;-80
2021/07/12 10:31:17;;;;;;;0.81;0.81;;;;;;;21.38;67.36;98752.69;2010399;78;21797;-80
2021/07/12 10:34:28;;;;;;;1.50;0.90;;;;;;;21.41;67.37;98734.03;2010441;81;20199;-81
2021/07/12 10:37:39;;;;;;;1.46;0.90;;;;;;;21.42;67.68;98730.44;2012541;81;20209;-81
2021/07/12 10:40:55;;;;;;;1.36;0.94;;;;;;;21.38;68.00;98728.94;2010792;81;20150;-81
2021/07/12 10:44:00;;;;;;;0.75;0.75;;;;;;;21.33;68.47;98718.63;2014127;81;20174;-82
2021/07/12 10:47:03;;;;;;;0.91;0.86;;;;;;;21.28;69.08;98717.19;2014335;77;21766;-81
2021/07/12 10:50:34;;;;;;;3.64;1.25;;;;;;;21.27;69.47;98713.69;2016890;80;20169;-81
2021/07/12 10:53:37;;;;;;;2.50;1.27;;;;;;;21.24;69.56;98713.00;2010920;81;20287;-77
2021/07/12 10:57:00;;;;;;;1.48;1.02;;;;;;;21.17;70.40;98722.22;2004849;81;20223;-76
2021/07/12 11:00:09;;;;;;;1.89;1.27;;;;;;;21.13;70.89;98724.19;2003542;81;20928;-76
2021/07/12 11:03:34;;;;;;;2.09;1.20;;;;;;;21.13;71.93;98719.75;2003950;77;25536;-76
2021/07/12 11:06:52;;;;;;;1.40;1.30;;;;;;;21.15;72.86;98718.81;2004220;81;20206;-77
2021/07/12 11:10:00;;;;;;;3.91;1.30;;;;;;;21.15;72.42;98698.53;2004108;81;20659;-77
2021/07/12 11:13:05;;;;;;;3.67;1.25;;;;;;;21.13;73.00;98689.84;2004211;81;20182;-76
2021/07/12 11:16:18;;;;;;;2.81;1.23;;;;;;;21.11;72.71;98682.03;2002800;78;23042;-77
2021/07/12 11:19:24;;;;;;;2.79;1.05;;;;;;;21.11;72.20;98668.84;2004942;80;20800;-77
2021/07/12 11:22:27;;;;;;;2.47;1.40;;;;;;;21.08;71.99;98655.81;2004669;81;20235;-78
2021/07/12 11:25:41;;;;;;;2.79;1.20;;;;;;;21.10;72.61;98666.28;2005064;80;20200;-77
2021/07/12 11:28:45;;;;;;;4.03;1.38;;;;;;;21.10;71.42;98655.72;2004859;81;20186;-78
2021/07/12 11:32:16;;;;;;;1.71;1.34;;;;;;;21.09;71.38;98648.75;2003709;78;24530;-78
2021/07/12 11:35:19;;;;;;;1.80;0.91;;;;;;;21.09;71.44;98649.59;2005123;81;20203;-77
2021/07/12 11:38:22;;;;;;;1.35;1.11;;;;;;;21.12;71.79;98646.78;2004658;80;20271;-77
2021/07/12 11:41:25;;;;;;;3.54;1.10;;;;;;;21.17;70.96;98643.00;2004377;80;20221;-77
2021/07/12 11:44:31;;;;;;;4.20;1.20;;;;;;;21.22;71.27;98647.09;2005147;81;20186;-78
2021/07/12 11:47:44;;;;;;;3.42;1.19;;;;;;;21.27;72.25;98642.41;2003647;78;21841;-78
2021/07/12 11:50:46;;;;;;;3.28;1.26;;;;;;;21.39;72.49;98646.97;2010162;81;20145;-82
2021/07/12 11:53:49;;;;;;;1.58;1.08;;;;;;;21.56;72.09;98648.56;2018538;81;20199;-83
2021/07/12 12:00:25;;;;;;;1.37;1.20;;;;;;;21.86;68.58;98648.47;2070108;70;169253;-80
2021/07/12 12:03:28;;;;;;;1.41;1.10;;;;;;;22.02;68.00;98658.94;2014174;80;20198;-84
2021/07/12 12:06:31;;;;;;;1.31;0.89;;;;;;;22.18;67.45;98658.84;2008921;81;20689;-79
2021/07/12 12:09:48;;;;;;;1.42;0.90;;;;;;;22.27;66.67;98660.94;2002450;81;20279;-80
2021/07/12 12:12:53;;;;;;;1.05;0.96;;;;;;;22.38;66.75;98658.41;2001194;81;20195;-79
2021/07/12 12:15:56;;;;;;;3.45;1.40;;;;;;;22.43;66.82;98645.75;1999381;79;22527;-79
2021/07/12 12:19:07;;;;;;;2.10;0.90;;;;;;;22.53;66.79;98640.72;2003201;81;20232;-79
2021/07/12 12:22:20;;;;;;;1.17;1.00;;;;;;;22.65;66.01;98639.91;2001226;81;20179;-79
2021/07/12 12:25:23;;;;;;;1.96;0.90;;;;;;;22.83;66.23;98632.59;2000453;81;20212;-78
2021/07/12 12:28:33;;;;;;;2.86;1.26;;;;;;;23.02;65.36;98633.06;2000558;81;20186;-78
2021/07/12 12:31:36;;;;;;;0.89;0.89;;;;;;;23.15;63.97;98628.59;1999427;81;20431;-79
2021/07/12 12:34:39;;;;;;;0.94;0.80;;;;;;;23.31;63.44;98627.56;2002100;81;20201;-78
2021/07/12 12:37:41;;;;;;;0.93;0.80;;;;;;;23.42;63.11;98607.34;2003597;81;20212;-78
2021/07/12 12:40:44;;;;;;;5.10;1.14;;;;;;;23.54;62.12;98612.75;1999588;81;20178;-78
2021/07/12 12:43:59;;;;;;;2.78;0.90;;;;;;;23.54;61.78;98613.59;1999521;81;20204;-79
2021/07/12 12:47:02;;;;;;;1.91;0.90;;;;;;;23.55;61.37;98635.63;2000391;79;20399;-80
2021/07/12 12:50:16;;;;;;;2.47;0.90;;;;;;;23.51;61.58;98635.81;2000332;81;20178;-78
2021/07/12 12:53:19;;;;;;;2.71;0.90;;;;;;;23.52;62.08;98647.31;1999718;81;20296;-78
2021/07/12 12:56:22;;;;;;;8.41;1.55;;;;;;;23.51;62.56;98648.22;2000703;81;20178;-78
2021/07/12 12:59:32;;;;;;;3.91;1.23;;;;;;;23.53;62.71;98649.00;1999891;81;20179;-79
2021/07/12 13:02:43;;;;;;;2.31;1.00;;;;;;;23.57;63.28;98642.56;1993477;79;37920;-79
2021/07/12 13:06:02;;;;;;;2.59;1.16;;;;;;;23.60;63.91;98650.28;2001113;81;20192;-83
2021/07/12 13:09:06;;;;;;;2.31;0.98;;;;;;;23.68;63.46;98647.09;2002693;81;20265;-85
2021/07/12 13:12:17;;;;;;;3.54;0.80;;;;;;;23.72;63.54;98643.28;2004960;81;20220;-85
2021/07/12 13:15:24;;;;;;;0.84;0.73;;;;;;;23.80;63.11;98641.78;2009274;78;65115;-81
2021/07/12 13:18:30;;;;;;;4.20;0.88;;;;;;;23.84;62.68;98642.41;1995488;81;20197;-80
2021/07/12 13:21:46;;;;;;;3.01;1.00;;;;;;;23.81;61.39;98645.28;2002124;81;20190;-77
2021/07/12 13:24:50;;;;;;;4.10;0.95;;;;;;;23.77;60.80;98642.00;1993268;81;20646;-78
2021/07/12 13:28:06;;;;;;;3.19;0.86;;;;;;;23.72;60.85;98633.53;1992109;81;21018;-77
2021/07/12 13:31:11;;;;;;;1.41;0.86;;;;;;;23.59;61.85;98638.00;1990989;78;21495;-77
2021/07/12 13:34:14;;;;;;;0.80;0.77;;;;;;;23.46;61.88;98645.06;1992116;81;20179;-77
2021/07/12 13:37:17;;;;;;;0.94;0.66;;;;;;;23.36;61.94;98641.38;1992425;81;20845;-77
2021/07/12 13:40:21;;;;;;;1.06;0.96;;;;;;;23.25;63.07;98636.78;1991278;81;20191;-76
2021/07/12 13:43:24;;;;;;;1.15;0.80;;;;;;;23.22;62.31;98629.06;1992594;81;20195;-77
2021/07/12 13:46:26;;;;;;;2.30;0.95;;;;;;;23.31;62.14;98619.63;1991343;81;20273;-77
2021/07/12 13:49:29;;;;;;;1.80;0.80;;;;;;;23.54;62.86;98618.03;1992143;81;20293;-77
2021/07/12 13:52:32;;;;;;;4.20;0.90;;;;;;;23.62;61.96;98636.94;1991769;81;20183;-77
2021/07/12 13:55:36;;;;;;;1.10;0.80;;;;;;;23.46;62.48;98648.56;1991964;81;20203;-77
2021/07/12 13:58:39;;;;;;;1.09;0.80;;;;;;;23.24;60.74;98650.97;1992221;81;20782;-77
2021/07/12 14:01:45;;;;;;;1.50;0.63;;;;;;;23.08;62.61;98637.94;1995589;78;100404;-77
2021/07/12 14:04:49;;;;;;;1.56;0.80;;;;;;;23.06;64.41;98621.28;1997401;81;20715;-76
2021/07/12 14:07:52;;;;;;;2.14;0.79;;;;;;;23.29;65.42;98632.13;1996280;81;20279;-77
2021/07/12 14:10:54;;;;;;;2.21;0.90;;;;;;;23.56;63.87;98630.22;1996000;81;20162;-76
2021/07/12 14:13:57;;;;;;;1.77;1.00;;;;;;;23.88;62.93;98624.47;1997124;81;20182;-77
2021/07/12 14:17:00;;;;;;;0.73;0.73;;;;;;;24.07;60.58;98625.72;1995361;78;55771;-77
2021/07/12 14:20:07;;;;;;;4.93;0.80;;;;;;;24.37;60.41;98620.03;1996501;81;20206;-77
2021/07/12 14:23:10;;;;;;;1.90;0.77;;;;;;;24.82;59.56;98612.28;1996809;81;20171;-77
2021/07/12 14:26:19;;;;;;;1.06;0.70;;;;;;;25.04;57.23;98608.88;1996600;81;20252;-77
2021/07/12 14:29:21;;;;;;;0.84;0.80;;;;;;;25.19;56.05;98601.53;1997464;81;21027;-76
2021/07/12 14:32:24;;;;;;;1.92;0.70;;;;;;;25.34;56.53;98597.72;1996821;78;22828;-78
2021/07/12 14:35:27;;;;;;;1.63;0.80;;;;;;;25.42;55.88;98591.78;1998507;81;20182;-76
2021/07/12 14:38:29;;;;;;;0.68;0.68;;;;;;;25.44;55.41;98592.50;1997452;81;20209;-77
2021/07/12 14:41:33;;;;;;;1.33;0.68;;;;;;;25.40;55.74;98594.56;1997212;81;20276;-77